createdAt,value
2024-02-19T00:02:25.429Z,5.17
2024-02-19T00:04:52.986Z,5.37
2024-02-19T00:07:20.626Z,5.23
2024-02-19T00:09:49.518Z,5.10
2024-02-19T00:12:17.083Z,5.10
2024-02-19T00:14:44.598Z,5.50
2024-02-19T00:17:12.116Z,5.40
2024-02-19T00:19:40.534Z,6.37
2024-02-19T00:22:08.484Z,5.93
2024-02-19T00:24:36.348Z,5.10
2024-02-19T00:27:05.222Z,5.40
2024-02-19T00:29:32.664Z,5.60
2024-02-19T00:32:00.359Z,6.00
2024-02-19T00:34:28.131Z,5.70
2024-02-19T00:36:55.968Z,5.80
2024-02-19T00:39:23.474Z,6.07
2024-02-19T00:41:50.925Z,5.60
2024-02-19T00:44:19.712Z,6.17
2024-02-19T00:46:47.191Z,6.30
2024-02-19T00:49:14.744Z,5.30
2024-02-19T00:51:43.513Z,5.80
2024-02-19T00:54:11.121Z,5.63
2024-02-19T00:56:38.985Z,5.63
2024-02-19T00:59:08.234Z,5.53
2024-02-19T01:01:37.128Z,5.73
2024-02-19T01:04:04.820Z,5.37
2024-02-19T01:06:32.769Z,5.63
2024-02-19T01:09:00.363Z,5.47
2024-02-19T01:11:27.913Z,4.70
2024-02-19T01:13:55.451Z,4.93
2024-02-19T01:16:22.925Z,4.37
2024-02-19T01:18:53.113Z,4.70
2024-02-19T01:21:20.860Z,5.23
2024-02-19T01:23:48.346Z,5.20
2024-02-19T01:26:19.868Z,4.90
2024-02-19T01:28:47.379Z,5.10
2024-02-19T01:31:14.985Z,4.53
2024-02-19T01:33:42.584Z,5.10
2024-02-19T01:36:12.541Z,5.80
2024-02-19T01:38:40.046Z,5.10
2024-02-19T01:41:07.496Z,5.80
2024-02-19T01:43:34.943Z,4.03
2024-02-19T01:46:02.537Z,4.93
2024-02-19T01:48:30.419Z,4.33
2024-02-19T01:50:58.471Z,4.37
2024-02-19T01:53:27.551Z,4.27
2024-02-19T01:55:54.976Z,4.43
2024-02-19T01:58:22.520Z,4.30
2024-02-19T02:00:50.604Z,4.80
2024-02-19T02:03:20.560Z,3.97
2024-02-19T02:05:48.613Z,3.60
2024-02-19T02:08:16.247Z,3.40
2024-02-19T02:10:45.116Z,4.00
2024-02-19T02:13:12.828Z,3.90
2024-02-19T02:15:40.499Z,2.70
2024-02-19T02:18:08.043Z,2.63
2024-02-19T02:20:35.660Z,2.70
2024-02-19T02:23:04.302Z,3.13
2024-02-19T02:25:31.807Z,3.20
2024-02-19T02:28:00.807Z,3.13
2024-02-19T02:30:28.268Z,2.80
2024-02-19T02:32:58.503Z,3.20
2024-02-19T02:35:26.537Z,3.50
2024-02-19T02:37:54.224Z,2.90
2024-02-19T02:40:21.804Z,2.97
2024-02-19T02:42:49.554Z,3.63
2024-02-19T02:45:18.661Z,3.00
2024-02-19T02:47:46.308Z,2.80
2024-02-19T02:50:13.906Z,2.73
2024-02-19T02:52:41.460Z,3.00
2024-02-19T02:55:09.441Z,2.63
2024-02-19T02:57:37.105Z,2.30
2024-02-19T03:00:05.206Z,2.73
2024-02-19T03:02:34.901Z,2.47
2024-02-19T03:05:02.457Z,2.63
2024-02-19T03:07:30.235Z,2.50
2024-02-19T03:09:58.436Z,2.13
2024-02-19T03:12:25.862Z,2.30
2024-02-19T03:14:53.572Z,2.50
2024-02-19T03:17:21.390Z,2.07
2024-02-19T03:19:50.242Z,2.40
2024-02-19T03:22:17.780Z,1.97
2024-02-19T03:24:45.498Z,2.07
2024-02-19T03:27:13.676Z,2.37
2024-02-19T03:29:41.159Z,2.33
2024-02-19T03:32:08.726Z,2.50
2024-02-19T03:34:36.321Z,2.77
2024-02-19T03:37:05.265Z,2.00
2024-02-19T03:39:32.738Z,3.00
2024-02-19T03:42:01.625Z,1.93
2024-02-19T03:44:29.083Z,2.07
2024-02-19T03:46:58.201Z,2.20
2024-02-19T03:49:26.891Z,2.10
2024-02-19T03:51:54.426Z,2.20
2024-02-19T03:54:23.517Z,2.33
2024-02-19T03:56:52.219Z,1.93
2024-02-19T03:59:19.635Z,2.20
2024-02-19T04:01:47.162Z,2.30
2024-02-19T04:04:17.588Z,2.30
2024-02-19T04:06:45.154Z,2.73
2024-02-19T04:09:12.669Z,1.70
2024-02-19T04:11:41.500Z,2.47
2024-02-19T04:14:08.035Z,2.30
2024-02-19T04:16:35.502Z,2.40
2024-02-19T04:19:03.162Z,1.97
2024-02-19T04:21:30.841Z,2.13
2024-02-19T04:23:58.284Z,2.30
2024-02-19T04:26:25.755Z,2.20
2024-02-19T04:28:54.938Z,1.90
2024-02-19T04:31:22.448Z,1.90
2024-02-19T04:33:50.064Z,1.93
2024-02-19T04:36:17.583Z,2.23
2024-02-19T04:38:45.031Z,2.07
2024-02-19T04:41:12.497Z,1.60
2024-02-19T04:43:39.946Z,1.70
2024-02-19T04:46:09.023Z,2.13
2024-02-19T04:48:37.206Z,1.93
2024-02-19T04:51:06.123Z,1.77
2024-02-19T04:53:34.040Z,1.53
2024-02-19T04:56:01.502Z,1.90
2024-02-19T04:58:28.984Z,1.67
2024-02-19T05:00:56.599Z,1.80
2024-02-19T05:03:25.593Z,1.57
2024-02-19T05:05:53.026Z,2.03
2024-02-19T05:08:20.497Z,2.00
2024-02-19T05:10:47.968Z,1.90
2024-02-19T05:13:15.653Z,1.90
2024-02-19T05:15:43.454Z,2.53
2024-02-19T05:18:11.170Z,2.03
2024-02-19T05:20:40.258Z,2.03
2024-02-19T05:23:07.841Z,1.50
2024-02-19T05:25:35.304Z,2.70
2024-02-19T05:28:02.870Z,2.30
2024-02-19T05:30:31.013Z,2.07
2024-02-19T05:32:58.560Z,1.90
2024-02-19T05:35:26.414Z,2.40
2024-02-19T05:37:55.466Z,1.60
2024-02-19T05:40:23.418Z,2.53
2024-02-19T05:42:51.219Z,2.60
2024-02-19T05:45:18.789Z,2.00
2024-02-19T05:47:47.889Z,2.07
2024-02-19T05:50:15.551Z,2.20
2024-02-19T05:52:43.035Z,2.60
2024-02-19T05:55:11.906Z,2.20
2024-02-19T05:57:39.856Z,2.47
2024-02-19T06:00:12.194Z,2.60
2024-02-19T06:02:39.870Z,2.37
2024-02-19T06:05:07.818Z,2.10
2024-02-19T06:07:35.382Z,2.03
2024-02-19T06:10:03.488Z,2.20
2024-02-19T06:12:32.377Z,2.70
2024-02-19T06:14:59.785Z,2.27
2024-02-19T06:17:27.362Z,2.93
2024-02-19T06:19:54.899Z,2.00
2024-02-19T06:22:22.825Z,2.33
2024-02-19T06:24:50.287Z,2.07
2024-02-19T06:27:17.725Z,2.30
2024-02-19T06:29:46.569Z,1.77
2024-02-19T06:32:14.132Z,2.17
2024-02-19T06:34:44.791Z,2.30
2024-02-19T06:37:13.001Z,1.77
2024-02-19T06:39:42.287Z,2.10
2024-02-19T06:42:09.835Z,2.17
2024-02-19T06:44:37.342Z,2.20
2024-02-19T06:47:06.217Z,2.50
2024-02-19T06:49:33.965Z,1.80
2024-02-19T06:52:01.502Z,2.50
2024-02-19T06:54:31.758Z,2.30
2024-02-19T06:57:00.409Z,2.20
2024-02-19T06:59:27.866Z,2.37
2024-02-19T07:01:55.351Z,2.50
2024-02-19T07:04:24.329Z,2.53
2024-02-19T07:06:52.936Z,2.37
2024-02-19T07:09:20.500Z,2.20
2024-02-19T07:11:47.997Z,2.33
2024-02-19T07:14:15.565Z,3.10
2024-02-19T07:16:43.015Z,2.80
2024-02-19T07:19:10.566Z,3.10
2024-02-19T07:21:39.633Z,2.80
2024-02-19T07:24:07.325Z,2.70
2024-02-19T07:26:34.734Z,3.37
2024-02-19T07:29:02.193Z,3.00
2024-02-19T07:31:29.664Z,3.20
2024-02-19T07:33:57.234Z,2.90
2024-02-19T07:36:25.100Z,2.87
2024-02-19T07:38:53.933Z,3.33
2024-02-19T07:41:21.408Z,3.30
2024-02-19T07:43:50.519Z,2.93
2024-02-19T07:46:19.710Z,3.20
2024-02-19T07:48:47.283Z,2.87
2024-02-19T07:51:16.095Z,3.10
2024-02-19T07:53:43.844Z,3.20
2024-02-19T07:56:12.637Z,3.73
2024-02-19T07:58:40.069Z,4.63
2024-02-19T08:01:07.748Z,4.67
2024-02-19T08:03:35.327Z,4.90
2024-02-19T08:06:03.229Z,5.80
2024-02-19T08:08:31.097Z,5.40
2024-02-19T08:10:59.413Z,4.03
2024-02-19T08:13:28.393Z,3.03
2024-02-19T08:15:56.017Z,2.80
2024-02-19T08:18:24.534Z,3.70
2024-02-19T08:20:52.671Z,3.10
2024-02-19T08:23:20.302Z,3.47
2024-02-19T08:25:49.205Z,2.93
2024-02-19T08:28:16.749Z,3.63
2024-02-19T08:30:46.335Z,2.83
2024-02-19T08:33:14.114Z,2.80
2024-02-19T08:35:42.562Z,3.00
2024-02-19T08:38:13.603Z,2.90
2024-02-19T08:40:41.213Z,3.20
2024-02-19T08:43:12.121Z,3.10
2024-02-19T08:45:40.993Z,2.73
2024-02-19T08:48:10.394Z,3.00
2024-02-19T08:50:38.259Z,2.50
2024-02-19T08:53:05.956Z,2.83
2024-02-19T08:55:33.673Z,3.10
2024-02-19T08:58:01.253Z,2.97
2024-02-19T09:00:31.460Z,2.80
2024-02-19T09:03:00.560Z,2.80
2024-02-19T09:05:29.470Z,3.33
2024-02-19T09:07:57.804Z,3.60
2024-02-19T09:10:31.378Z,4.10
2024-02-19T09:12:58.829Z,5.87
2024-02-19T09:15:26.454Z,4.40
2024-02-19T09:17:55.462Z,4.50
2024-02-19T09:20:23.726Z,5.60
2024-02-19T09:22:52.533Z,2.70
2024-02-19T09:25:20.230Z,3.30
2024-02-19T09:27:47.783Z,3.70
2024-02-19T09:30:15.610Z,3.37
2024-02-19T09:32:43.099Z,3.00
2024-02-19T09:35:10.701Z,3.23
2024-02-19T09:37:38.258Z,3.73
2024-02-19T09:40:08.804Z,3.73
2024-02-19T09:42:36.622Z,3.57
2024-02-19T09:45:04.235Z,3.70
2024-02-19T09:47:32.307Z,3.70
2024-02-19T09:50:00.802Z,4.30
2024-02-19T09:52:30.349Z,4.00
2024-02-19T09:54:58.831Z,4.50
2024-02-19T09:57:29.212Z,4.30
2024-02-19T09:59:59.457Z,4.17
2024-02-19T10:02:26.916Z,4.50
2024-02-19T10:04:54.407Z,4.53
2024-02-19T10:07:22.066Z,3.90
2024-02-19T10:09:49.754Z,4.70
2024-02-19T10:12:17.732Z,4.50
2024-02-19T10:14:46.514Z,4.83
2024-02-19T10:17:13.982Z,4.50
2024-02-19T10:19:41.689Z,4.37
2024-02-19T10:22:09.482Z,5.43
2024-02-19T10:24:38.183Z,5.37
2024-02-19T10:27:06.560Z,5.83
2024-02-19T10:29:33.992Z,5.37
2024-02-19T10:32:02.751Z,5.00
2024-02-19T10:34:30.297Z,5.60
2024-02-19T10:36:57.821Z,4.87
2024-02-19T10:39:26.004Z,5.40
2024-02-19T10:41:53.823Z,4.80
2024-02-19T10:44:21.901Z,5.03
2024-02-19T10:46:49.558Z,4.83
2024-02-19T10:49:20.867Z,5.07
2024-02-19T10:51:48.662Z,5.20
2024-02-19T10:54:17.808Z,4.80
2024-02-19T10:56:45.589Z,5.00
2024-02-19T10:59:15.207Z,4.93
2024-02-19T11:01:44.907Z,5.20
2024-02-19T11:04:20.785Z,5.10
2024-02-19T11:06:48.725Z,4.47
2024-02-19T11:09:16.568Z,4.60
2024-02-19T11:11:57.551Z,4.83
2024-02-19T11:14:25.426Z,4.70
2024-02-19T11:16:55.263Z,4.30
2024-02-19T11:19:24.716Z,4.80
2024-02-19T11:22:02.290Z,4.70
2024-02-19T11:24:30.744Z,4.80
2024-02-19T11:26:58.324Z,4.00
2024-02-19T11:29:33.494Z,4.70
2024-02-19T11:32:08.896Z,4.90
2024-02-19T11:34:37.779Z,3.80
2024-02-19T11:37:06.878Z,4.73
2024-02-19T11:39:35.152Z,4.00
2024-02-19T11:42:03.269Z,3.80
2024-02-19T11:44:31.422Z,5.13
2024-02-19T11:46:59.957Z,4.53
2024-02-19T11:49:28.283Z,4.60
2024-02-19T11:52:04.817Z,4.60
2024-02-19T11:54:39.199Z,5.10
2024-02-19T11:57:08.804Z,5.13
2024-02-19T11:59:37.001Z,5.20
2024-02-19T12:02:06.662Z,5.30
2024-02-19T12:04:35.643Z,5.27
2024-02-19T12:07:04.885Z,5.57
2024-02-19T12:09:32.464Z,6.00
2024-02-19T12:12:00.124Z,6.00
2024-02-19T12:14:27.855Z,5.03
2024-02-19T12:16:56.242Z,4.90
2024-02-19T12:19:23.776Z,5.30
2024-02-19T12:21:51.369Z,5.33
2024-02-19T12:24:20.647Z,5.07
2024-02-19T12:26:48.134Z,4.67
2024-02-19T12:29:15.612Z,4.90
2024-02-19T12:31:43.129Z,4.90
2024-02-19T12:34:10.863Z,4.00
2024-02-19T12:36:38.554Z,5.23
2024-02-19T12:39:10.752Z,4.43
2024-02-19T12:41:41.273Z,4.60
2024-02-19T12:44:08.872Z,4.70
2024-02-19T12:46:36.541Z,4.10
2024-02-19T12:49:04.437Z,4.07
2024-02-19T12:51:33.274Z,4.23
2024-02-19T12:54:00.842Z,3.80
2024-02-19T12:56:28.399Z,4.00
2024-02-19T12:58:57.251Z,3.90
2024-02-19T13:01:31.663Z,4.23
2024-02-19T13:04:00.899Z,4.03
2024-02-19T13:06:28.742Z,3.60
2024-02-19T13:08:57.813Z,3.47
2024-02-19T13:11:26.073Z,3.23
2024-02-19T13:13:53.976Z,3.23
2024-02-19T13:16:22.918Z,3.80
2024-02-19T13:18:52.555Z,3.30
2024-02-19T13:21:21.071Z,3.80
2024-02-19T13:23:48.876Z,3.10
2024-02-19T13:26:16.504Z,3.80
2024-02-19T13:28:44.018Z,3.47
2024-02-19T13:31:11.667Z,4.00
2024-02-19T13:33:41.116Z,3.50
2024-02-19T13:36:09.859Z,3.30
2024-02-19T13:38:37.368Z,3.87
2024-02-19T13:41:05.456Z,3.77
2024-02-19T13:43:33.598Z,3.00
2024-02-19T13:46:02.504Z,3.67
2024-02-19T13:48:30.655Z,3.80
2024-02-19T13:50:59.938Z,3.20
2024-02-19T13:53:28.648Z,3.70
2024-02-19T13:55:56.528Z,3.63
2024-02-19T13:58:24.314Z,4.40
2024-02-19T14:00:52.695Z,4.33
2024-02-19T14:03:21.591Z,4.00
2024-02-19T14:05:49.311Z,4.43
2024-02-19T14:08:18.558Z,4.40
2024-02-19T14:10:48.133Z,4.53
2024-02-19T14:13:16.578Z,4.20
2024-02-19T14:15:44.139Z,3.83
2024-02-19T14:18:11.699Z,4.23
2024-02-19T14:20:39.206Z,4.30
2024-02-19T14:23:08.015Z,4.10
2024-02-19T14:25:39.345Z,4.50
2024-02-19T14:28:10.146Z,4.00
2024-02-19T14:30:38.103Z,4.40
2024-02-19T14:33:06.323Z,4.13
2024-02-19T14:35:34.253Z,4.30
2024-02-19T14:38:03.472Z,4.50
2024-02-19T14:40:31.240Z,4.33
2024-02-19T14:43:02.271Z,4.47
2024-02-19T14:45:30.100Z,4.73
2024-02-19T14:47:57.608Z,4.07
2024-02-19T14:50:25.150Z,3.73
2024-02-19T14:52:52.766Z,4.63
2024-02-19T14:55:21.127Z,4.30
2024-02-19T14:57:48.984Z,4.37
2024-02-19T15:00:21.835Z,5.20
2024-02-19T15:02:50.806Z,4.97
2024-02-19T15:05:19.403Z,4.70
2024-02-19T15:07:54.534Z,5.10
2024-02-19T15:10:25.415Z,5.13
2024-02-19T15:12:53.960Z,5.10
2024-02-19T15:15:23.181Z,4.97
2024-02-19T15:17:51.184Z,5.13
2024-02-19T15:20:19.210Z,5.43
2024-02-19T15:22:47.702Z,4.63
2024-02-19T15:25:15.506Z,4.50
2024-02-19T15:27:43.044Z,4.80
2024-02-19T15:30:11.051Z,3.90
2024-02-19T15:32:40.984Z,3.10
2024-02-19T15:35:09.126Z,2.97
2024-02-19T15:37:36.904Z,2.50
2024-02-19T15:40:05.124Z,2.50
2024-02-19T15:42:37.708Z,2.40
2024-02-19T15:45:05.582Z,2.80
2024-02-19T15:47:33.205Z,2.13
2024-02-19T15:50:03.968Z,2.50
2024-02-19T15:52:31.544Z,3.00
2024-02-19T15:54:59.034Z,3.03
2024-02-19T15:57:26.614Z,2.97
2024-02-19T15:59:54.120Z,2.50
2024-02-19T16:02:21.746Z,3.20
2024-02-19T16:04:49.579Z,3.07
2024-02-19T16:07:21.339Z,3.37
2024-02-19T16:09:51.713Z,3.73
2024-02-19T16:12:19.216Z,3.50
2024-02-19T16:14:46.650Z,3.27
2024-02-19T16:17:14.314Z,3.00
2024-02-19T16:19:41.940Z,3.13
2024-02-19T16:22:09.668Z,3.30
2024-02-19T16:24:38.544Z,3.50
2024-02-19T16:27:06.194Z,3.70
2024-02-19T16:29:33.697Z,3.40
2024-02-19T16:32:01.948Z,3.20
2024-02-19T16:34:29.456Z,3.70
2024-02-19T16:36:57.003Z,3.83
2024-02-19T16:39:24.792Z,3.40
2024-02-19T16:41:53.652Z,3.60
2024-02-19T16:44:21.085Z,3.60
2024-02-19T16:46:48.577Z,3.40
2024-02-19T16:49:16.128Z,3.70
2024-02-19T16:51:44.813Z,3.70
2024-02-19T16:54:12.385Z,3.80
2024-02-19T16:56:39.983Z,3.57
2024-02-19T16:59:08.868Z,3.90
2024-02-19T17:01:36.493Z,4.03
2024-02-19T17:04:05.470Z,4.23
2024-02-19T17:06:33.421Z,3.87
2024-02-19T17:09:04.889Z,3.70
2024-02-19T17:11:33.428Z,4.23
2024-02-19T17:14:02.389Z,5.07
2024-02-19T17:16:33.534Z,4.17
2024-02-19T17:19:01.207Z,5.30
2024-02-19T17:21:28.766Z,5.27
2024-02-19T17:23:56.281Z,4.17
2024-02-19T17:26:23.797Z,5.70
2024-02-19T17:28:51.209Z,6.00
2024-02-19T17:31:19.230Z,5.10
2024-02-19T17:33:48.267Z,5.33
2024-02-19T17:36:15.963Z,5.80
2024-02-19T17:38:43.415Z,5.23
2024-02-19T17:41:10.853Z,5.60
2024-02-19T17:43:38.328Z,5.20
2024-02-19T17:46:06.040Z,6.03
2024-02-19T17:48:35.231Z,5.57
2024-02-19T17:51:04.490Z,5.57
2024-02-19T17:53:31.938Z,6.57
2024-02-19T17:55:59.401Z,6.33
2024-02-19T17:58:27.507Z,6.30
2024-02-19T18:00:55.183Z,6.00
2024-02-19T18:03:22.728Z,6.63
2024-02-19T18:05:50.356Z,6.60
2024-02-19T18:08:19.154Z,5.80
2024-02-19T18:10:46.650Z,5.60
2024-02-19T18:13:14.514Z,6.10
2024-02-19T18:15:41.975Z,6.17
2024-02-19T18:18:10.140Z,5.63
2024-02-19T18:20:38.207Z,7.93
2024-02-19T18:23:07.516Z,7.03
2024-02-19T18:25:36.402Z,5.70
2024-02-19T18:28:04.050Z,6.13
2024-02-19T18:30:31.546Z,5.70
2024-02-19T18:32:59.735Z,5.93
2024-02-19T18:35:27.227Z,6.10
2024-02-19T18:37:54.682Z,6.20
2024-02-19T18:40:22.146Z,5.90
2024-02-19T18:42:51.213Z,6.50
2024-02-19T18:45:18.809Z,5.40
2024-02-19T18:47:47.111Z,5.73
2024-02-19T18:50:15.556Z,5.70
2024-02-19T18:52:43.344Z,5.77
2024-02-19T18:55:10.932Z,5.80
2024-02-19T18:57:39.214Z,7.27
2024-02-19T19:00:10.754Z,7.10
2024-02-19T19:02:38.405Z,5.83
2024-02-19T19:05:06.691Z,6.47
2024-02-19T19:07:34.517Z,6.10
2024-02-19T19:10:02.148Z,5.53
2024-02-19T19:12:29.726Z,5.53
2024-02-19T19:14:57.250Z,5.90
2024-02-19T19:17:26.122Z,5.87
2024-02-19T19:19:54.102Z,6.10
2024-02-19T19:22:22.332Z,6.10
2024-02-19T19:24:50.186Z,6.20
2024-02-19T19:27:18.215Z,5.77
2024-02-19T19:29:45.672Z,6.50
2024-02-19T19:32:17.410Z,5.60
2024-02-19T19:34:49.063Z,5.97
2024-02-19T19:37:16.610Z,5.83
2024-02-19T19:39:44.301Z,6.10
2024-02-19T19:42:11.748Z,5.90
2024-02-19T19:44:39.209Z,6.30
2024-02-19T19:47:06.657Z,5.70
2024-02-19T19:49:34.327Z,6.47
2024-02-19T19:52:03.381Z,6.50
2024-02-19T19:54:30.844Z,6.00
2024-02-19T19:56:58.313Z,6.60
2024-02-19T19:59:27.308Z,5.97
2024-02-19T20:01:54.816Z,6.13
2024-02-19T20:04:22.393Z,6.00
2024-02-19T20:06:50.016Z,7.23
2024-02-19T20:09:20.453Z,6.93
2024-02-19T20:11:47.920Z,7.37
2024-02-19T20:14:15.442Z,7.37
2024-02-19T20:16:42.865Z,7.13
2024-02-19T20:19:10.411Z,7.23
2024-02-19T20:21:38.027Z,7.40
2024-02-19T20:24:05.808Z,7.00
2024-02-19T20:26:38.521Z,7.20
2024-02-19T20:29:07.719Z,7.03
2024-02-19T20:31:35.275Z,6.60
2024-02-19T20:34:02.956Z,6.50
2024-02-19T20:36:33.540Z,5.50
2024-02-19T20:39:01.835Z,6.03
2024-02-19T20:41:29.353Z,5.03
2024-02-19T20:43:58.164Z,4.80
2024-02-19T20:46:25.624Z,5.10
2024-02-19T20:48:53.125Z,4.87
2024-02-19T20:51:20.668Z,4.43
2024-02-19T20:53:48.205Z,3.83
2024-02-19T20:56:15.669Z,3.70
2024-02-19T20:58:43.107Z,4.40
2024-02-19T21:01:12.005Z,4.30
2024-02-19T21:03:43.341Z,3.10
2024-02-19T21:06:16.878Z,3.40
2024-02-19T21:08:44.516Z,2.93
2024-02-19T21:11:13.289Z,3.60
2024-02-19T21:13:41.276Z,4.10
2024-02-19T21:16:10.100Z,3.97
2024-02-19T21:18:46.723Z,3.40
2024-02-19T21:21:22.350Z,4.03
2024-02-19T21:23:57.550Z,3.80
2024-02-19T21:26:27.411Z,3.90
2024-02-19T21:28:55.696Z,3.63
2024-02-19T21:31:23.709Z,3.43
2024-02-19T21:33:52.740Z,4.23
2024-02-19T21:36:20.491Z,3.37
2024-02-19T21:38:49.275Z,3.67
2024-02-19T21:41:17.278Z,4.00
2024-02-19T21:43:45.398Z,2.80
2024-02-19T21:46:13.626Z,3.13
2024-02-19T21:48:41.972Z,3.20
2024-02-19T21:51:10.994Z,3.70
2024-02-19T21:53:38.412Z,3.70
2024-02-19T21:56:06.493Z,3.80
2024-02-19T21:58:34.081Z,3.70
2024-02-19T22:01:01.817Z,3.43
2024-02-19T22:03:29.734Z,3.70
2024-02-19T22:05:57.348Z,3.40
2024-02-19T22:08:26.232Z,3.80
2024-02-19T22:10:53.760Z,3.70
2024-02-19T22:13:21.368Z,3.60
2024-02-19T22:15:54.602Z,3.60
2024-02-19T22:18:23.290Z,3.70
2024-02-19T22:20:51.338Z,3.47
2024-02-19T22:23:19.687Z,4.13
2024-02-19T22:25:49.561Z,3.83
2024-02-19T22:28:17.667Z,3.60
2024-02-19T22:30:45.160Z,3.53
2024-02-19T22:33:12.674Z,3.87
2024-02-19T22:35:40.185Z,3.80
2024-02-19T22:38:07.656Z,3.90
2024-02-19T22:40:35.655Z,3.70
2024-02-19T22:43:09.034Z,3.93
2024-02-19T22:45:36.565Z,3.67
2024-02-19T22:48:05.806Z,3.83
2024-02-19T22:50:33.362Z,4.10
2024-02-19T22:53:01.029Z,3.90
2024-02-19T22:55:28.596Z,4.33
2024-02-19T22:57:56.080Z,3.73
2024-02-19T23:00:35.374Z,3.60
2024-02-19T23:03:02.969Z,4.13
2024-02-19T23:05:30.480Z,3.43
2024-02-19T23:07:59.854Z,3.73
2024-02-19T23:10:27.356Z,4.00
2024-02-19T23:12:55.083Z,3.50
2024-02-19T23:15:23.425Z,3.40
2024-02-19T23:17:52.860Z,2.90
2024-02-19T23:20:20.904Z,3.00
2024-02-19T23:22:48.528Z,3.70
2024-02-19T23:25:16.144Z,4.00
2024-02-19T23:27:43.651Z,4.17
2024-02-19T23:30:11.487Z,3.70
2024-02-19T23:32:39.056Z,4.03
2024-02-19T23:35:08.852Z,3.53
2024-02-19T23:37:36.880Z,3.40
2024-02-19T23:40:11.512Z,3.50
2024-02-19T23:42:39.096Z,3.37
2024-02-19T23:45:11.152Z,3.67
2024-02-19T23:47:39.522Z,3.70
2024-02-19T23:50:09.322Z,3.67
2024-02-19T23:52:37.338Z,3.37
2024-02-19T23:55:05.445Z,3.63
2024-02-19T23:57:33.917Z,5.00
